createdAt,value
2022-08-10T00:01:52.132Z,23.90
2022-08-10T00:04:22.061Z,23.80
2022-08-10T00:06:55.235Z,23.80
2022-08-10T00:09:23.587Z,23.80
2022-08-10T00:11:51.140Z,23.80
2022-08-10T00:14:18.442Z,23.70
2022-08-10T00:16:48.286Z,23.70
2022-08-10T00:19:16.395Z,23.70
2022-08-10T00:21:44.988Z,23.70
2022-08-10T00:24:12.300Z,23.70
2022-08-10T00:27:51.830Z,23.60
2022-08-10T00:29:26.798Z,23.60
2022-08-10T00:31:59.195Z,23.50
2022-08-10T00:34:28.351Z,23.50
2022-08-10T00:36:56.215Z,23.40
2022-08-10T00:39:23.575Z,23.40
2022-08-10T00:42:01.499Z,23.30
2022-08-10T00:44:36.573Z,23.20
2022-08-10T00:47:04.418Z,23.20
2022-08-10T00:49:34.043Z,23.20
2022-08-10T00:52:02.649Z,23.10
2022-08-10T00:54:31.070Z,23.10
2022-08-10T00:57:15.843Z,23.10
2022-08-10T00:59:59.591Z,23.00
2022-08-10T01:02:32.669Z,23.00
2022-08-10T01:05:04.097Z,22.90
2022-08-10T01:07:49.907Z,22.90
2022-08-10T01:10:28.742Z,22.80
2022-08-10T01:13:13.378Z,22.80
2022-08-10T01:16:04.931Z,22.70
2022-08-10T01:18:53.750Z,22.70
2022-08-10T01:21:53.976Z,22.70
2022-08-10T01:24:34.502Z,22.70
2022-08-10T01:27:07.850Z,22.60
2022-08-10T01:29:56.854Z,22.60
2022-08-10T01:32:38.004Z,22.60
2022-08-10T01:35:24.749Z,22.50
2022-08-10T01:38:22.291Z,22.50
2022-08-10T01:40:56.194Z,22.50
2022-08-10T01:43:28.312Z,22.40
2022-08-10T01:45:59.473Z,22.40
2022-08-10T01:48:34.455Z,22.40
2022-08-10T01:51:23.199Z,22.40
2022-08-10T01:53:56.805Z,22.40
2022-08-10T01:56:26.488Z,22.40
2022-08-10T01:58:59.847Z,22.40
2022-08-10T02:01:32.591Z,22.40
2022-08-10T02:04:09.804Z,22.30
2022-08-10T02:06:45.319Z,22.30
2022-08-10T02:09:17.098Z,22.20
2022-08-10T02:12:05.276Z,22.20
2022-08-10T02:14:35.332Z,22.20
2022-08-10T02:17:57.469Z,22.10
2022-08-10T02:20:07.372Z,22.10
2022-08-10T02:22:45.855Z,22.10
2022-08-10T02:25:39.993Z,22.10
2022-08-10T02:28:06.517Z,22.00
2022-08-10T02:30:34.288Z,22.00
2022-08-10T02:33:02.220Z,22.00
2022-08-10T02:35:53.716Z,22.00
2022-08-10T02:38:21.640Z,22.00
2022-08-10T02:45:01.480Z,21.90
2022-08-10T02:45:29.330Z,21.90
2022-08-10T02:47:01.627Z,21.80
2022-08-10T02:49:45.588Z,21.80
2022-08-10T02:52:24.748Z,21.80
2022-08-10T02:54:58.838Z,21.80
2022-08-10T02:57:37.220Z,21.80
2022-08-10T03:00:26.108Z,21.80
2022-08-10T03:02:58.356Z,21.80
2022-08-10T03:05:31.288Z,21.70
2022-08-10T03:08:07.065Z,21.70
2022-08-10T03:10:43.335Z,21.60
2022-08-10T03:13:12.302Z,21.60
2022-08-10T03:15:44.090Z,21.60
2022-08-10T03:18:12.427Z,21.60
2022-08-10T03:20:41.894Z,21.60
2022-08-10T03:23:18.399Z,21.50
2022-08-10T03:25:53.443Z,21.50
2022-08-10T03:28:28.144Z,21.50
2022-08-10T03:30:57.505Z,21.40
2022-08-10T03:33:28.038Z,21.40
2022-08-10T03:36:40.709Z,21.40
2022-08-10T03:38:46.107Z,21.40
2022-08-10T03:41:16.247Z,21.40
2022-08-10T03:43:48.198Z,21.40
2022-08-10T03:46:19.281Z,21.30
2022-08-10T03:48:50.229Z,21.30
2022-08-10T03:51:21.722Z,21.30
2022-08-10T03:54:02.893Z,21.30
2022-08-10T03:56:38.006Z,21.30
2022-08-10T03:59:11.325Z,21.30
2022-08-10T04:02:43.489Z,21.30
2022-08-10T04:04:26.669Z,21.30
2022-08-10T04:06:56.436Z,21.20
2022-08-10T04:09:54.031Z,21.20
2022-08-10T04:12:19.444Z,21.20
2022-08-10T04:14:52.773Z,21.20
2022-08-10T04:17:57.459Z,21.20
2022-08-10T04:20:24.509Z,21.10
2022-08-10T04:22:53.689Z,21.10
2022-08-10T04:25:24.006Z,21.10
2022-08-10T04:27:54.751Z,21.10
2022-08-10T04:30:22.584Z,21.00
2022-08-10T04:32:53.704Z,21.00
2022-08-10T04:35:22.817Z,21.00
2022-08-10T04:37:53.900Z,21.00
2022-08-10T04:40:29.056Z,21.00
2022-08-10T04:43:07.464Z,21.00
2022-08-10T04:45:48.328Z,21.00
2022-08-10T04:48:40.699Z,20.90
2022-08-10T04:51:17.940Z,20.90
2022-08-10T04:54:05.273Z,20.90
2022-08-10T04:56:39.480Z,20.90
2022-08-10T04:59:09.148Z,20.90
2022-08-10T05:02:28.293Z,20.90
2022-08-10T05:04:34.745Z,20.90
2022-08-10T05:07:16.259Z,20.90
2022-08-10T05:10:00.923Z,20.90
2022-08-10T05:12:37.972Z,20.90
2022-08-10T05:15:12.268Z,20.90
2022-08-10T05:18:08.798Z,20.80
2022-08-10T05:20:30.333Z,20.90
2022-08-10T05:23:00.830Z,20.80
2022-08-10T05:25:32.885Z,20.80
2022-08-10T05:28:06.614Z,20.80
2022-08-10T05:30:37.212Z,20.80
2022-08-10T05:33:08.932Z,20.80
2022-08-10T05:35:56.675Z,20.80
2022-08-10T05:38:27.733Z,20.70
2022-08-10T05:40:55.919Z,20.70
2022-08-10T05:43:24.257Z,20.70
2022-08-10T05:46:17.682Z,20.80
2022-08-10T05:48:56.857Z,20.80
2022-08-10T05:51:28.693Z,20.80
2022-08-10T05:54:02.288Z,20.70
2022-08-10T05:56:55.063Z,20.70
2022-08-10T06:00:29.530Z,20.80
2022-08-10T06:02:35.772Z,20.80
2022-08-10T06:05:13.997Z,20.80
2022-08-10T06:07:47.951Z,20.80
2022-08-10T06:10:31.306Z,20.80
2022-08-10T06:13:31.035Z,20.80
2022-08-10T06:16:13.301Z,20.80
2022-08-10T06:18:42.036Z,20.90
2022-08-10T06:21:16.344Z,20.90
2022-08-10T06:23:44.383Z,21.00
2022-08-10T06:26:14.938Z,21.00
2022-08-10T06:29:02.228Z,21.00
2022-08-10T06:31:47.152Z,21.10
2022-08-10T06:34:26.985Z,21.20
2022-08-10T06:36:55.385Z,21.30
2022-08-10T06:39:34.806Z,21.30
2022-08-10T06:42:15.847Z,21.30
2022-08-10T06:44:53.581Z,21.30
2022-08-10T06:47:25.467Z,21.40
2022-08-10T06:49:59.940Z,21.40
2022-08-10T06:52:33.460Z,21.40
2022-08-10T06:55:05.486Z,21.40
2022-08-10T06:57:38.672Z,21.50
2022-08-10T07:00:08.139Z,21.50
2022-08-10T07:02:54.904Z,21.50
2022-08-10T07:05:27.424Z,21.60
2022-08-10T07:08:01.039Z,21.60
2022-08-10T07:10:41.069Z,21.70
2022-08-10T07:13:15.852Z,21.70
2022-08-10T07:16:06.153Z,21.70
2022-08-10T07:18:36.534Z,21.80
2022-08-10T07:21:05.578Z,21.80
2022-08-10T07:23:57.663Z,21.80
2022-08-10T07:26:24.087Z,21.90
2022-08-10T07:28:52.414Z,21.90
2022-08-10T07:31:33.019Z,21.90
2022-08-10T07:34:10.205Z,21.90
2022-08-10T07:36:40.826Z,22.00
2022-08-10T07:39:12.754Z,22.00
2022-08-10T07:41:46.802Z,22.10
2022-08-10T07:44:15.175Z,22.20
2022-08-10T07:46:47.242Z,22.20
2022-08-10T07:49:23.653Z,22.20
2022-08-10T07:51:54.443Z,22.20
2022-08-10T07:54:27.795Z,22.30
2022-08-10T07:57:01.776Z,22.50
2022-08-10T07:59:37.969Z,22.50
2022-08-10T08:02:13.534Z,22.60
2022-08-10T08:04:44.078Z,22.60
2022-08-10T08:07:13.014Z,22.70
2022-08-10T08:09:57.936Z,22.80
2022-08-10T08:12:36.757Z,22.80
2022-08-10T08:16:14.381Z,22.80
2022-08-10T08:18:02.850Z,22.90
2022-08-10T08:20:33.975Z,23.00
2022-08-10T08:24:10.688Z,23.10
2022-08-10T08:25:52.716Z,23.20
2022-08-10T08:28:20.483Z,23.20
2022-08-10T08:30:49.010Z,23.30
2022-08-10T08:33:19.707Z,23.40
2022-08-10T08:35:48.360Z,23.40
2022-08-10T08:38:30.266Z,23.50
2022-08-10T08:41:20.464Z,23.50
2022-08-10T08:44:14.596Z,23.60
2022-08-10T08:48:03.557Z,23.70
2022-08-10T08:50:09.410Z,23.70
2022-08-10T08:52:55.487Z,23.80
2022-08-10T08:56:01.421Z,23.90
2022-08-10T08:59:05.316Z,23.90
2022-08-10T09:02:07.213Z,24.00
2022-08-10T09:05:04.134Z,24.10
2022-08-10T09:08:03.248Z,24.10
2022-08-10T09:10:50.700Z,24.20
2022-08-10T09:13:37.112Z,24.30
2022-08-10T09:16:26.117Z,24.30
2022-08-10T09:19:34.763Z,24.40
2022-08-10T09:22:28.048Z,24.50
2022-08-10T09:25:28.349Z,24.60
2022-08-10T09:28:07.536Z,24.70
2022-08-10T09:31:18.825Z,24.70
2022-08-10T09:36:24.605Z,24.80
2022-08-10T09:37:19.440Z,24.90
2022-08-10T09:40:12.315Z,24.90
2022-08-10T09:43:21.944Z,25.10
2022-08-10T09:46:11.724Z,25.20
2022-08-10T09:48:52.374Z,25.20
2022-08-10T09:51:45.892Z,25.30
2022-08-10T09:54:28.487Z,25.40
2022-08-10T09:57:44.352Z,25.50
2022-08-10T10:00:15.527Z,25.60
2022-08-10T10:03:17.736Z,25.70
2022-08-10T10:05:54.358Z,25.80
2022-08-10T10:09:10.010Z,25.80
2022-08-10T10:12:07.717Z,25.90
2022-08-10T10:15:24.779Z,25.90
2022-08-10T10:18:08.081Z,26.00
2022-08-10T10:20:54.328Z,26.10
2022-08-10T10:24:19.844Z,26.10
2022-08-10T10:27:18.949Z,26.20
2022-08-10T10:30:01.277Z,26.30
2022-08-10T10:32:52.428Z,26.30
2022-08-10T10:35:29.736Z,26.40
2022-08-10T10:38:02.834Z,26.50
2022-08-10T10:40:51.213Z,26.50
2022-08-10T10:43:47.326Z,26.70
2022-08-10T10:46:46.718Z,26.70
2022-08-10T10:49:23.131Z,26.80
2022-08-10T10:52:11.353Z,26.90
2022-08-10T10:54:47.806Z,26.90
2022-08-10T10:58:00.466Z,27.00
2022-08-10T11:00:42.122Z,27.10
2022-08-10T11:03:21.328Z,27.10
2022-08-10T11:06:10.135Z,27.20
2022-08-10T11:08:44.729Z,27.30
2022-08-10T11:12:01.523Z,27.30
2022-08-10T11:14:26.971Z,27.40
2022-08-10T11:17:23.191Z,27.50
2022-08-10T11:20:00.296Z,27.60
2022-08-10T11:22:40.212Z,27.60
2022-08-10T11:25:28.783Z,27.70
2022-08-10T11:28:16.321Z,27.80
2022-08-10T11:30:55.301Z,27.80
2022-08-10T11:34:47.803Z,27.90
2022-08-10T11:37:16.193Z,27.90
2022-08-10T11:39:56.226Z,28.00
2022-08-10T11:42:55.624Z,28.10
2022-08-10T11:45:34.423Z,28.10
2022-08-10T11:48:53.240Z,28.20
2022-08-10T11:51:27.296Z,28.20
2022-08-10T11:54:05.357Z,28.30
2022-08-10T11:56:43.764Z,28.30
2022-08-10T11:59:30.503Z,28.40
2022-08-10T12:01:58.749Z,28.50
2022-08-10T12:04:28.457Z,28.50
2022-08-10T12:06:57.892Z,28.50
2022-08-10T12:10:09.463Z,28.60
2022-08-10T12:12:19.125Z,28.60
2022-08-10T12:15:11.068Z,28.70
2022-08-10T12:17:44.748Z,28.70
2022-08-10T12:20:31.484Z,28.70
2022-08-10T12:23:09.923Z,28.80
2022-08-10T12:25:55.666Z,28.80
2022-08-10T12:28:51.864Z,28.90
2022-08-10T12:31:34.074Z,29.00
2022-08-10T12:34:14.542Z,29.00
2022-08-10T12:36:47.391Z,29.10
2022-08-10T12:39:25.088Z,29.10
2022-08-10T12:42:39.367Z,29.20
2022-08-10T12:45:14.603Z,29.20
2022-08-10T12:48:31.084Z,29.30
2022-08-10T12:51:14.910Z,29.30
2022-08-10T12:53:44.839Z,29.40
2022-08-10T12:56:26.723Z,29.50
2022-08-10T12:59:00.445Z,29.50
2022-08-10T13:02:09.653Z,29.60
2022-08-10T13:04:36.446Z,29.60
2022-08-10T13:07:06.023Z,29.70
2022-08-10T13:09:34.625Z,29.70
2022-08-10T13:12:36.854Z,29.70
2022-08-10T13:15:25.393Z,29.80
2022-08-10T13:18:18.837Z,29.90
2022-08-10T13:20:52.161Z,29.90
2022-08-10T13:23:28.226Z,30.00
2022-08-10T13:25:58.897Z,30.00
2022-08-10T13:28:39.974Z,30.00
2022-08-10T13:31:16.752Z,30.10
2022-08-10T13:34:39.954Z,30.10
2022-08-10T13:36:40.295Z,30.20
2022-08-10T13:39:09.043Z,30.30
2022-08-10T13:41:40.214Z,30.30
2022-08-10T13:44:15.041Z,30.30
2022-08-10T13:46:51.151Z,30.30
2022-08-10T13:49:20.378Z,30.40
2022-08-10T13:51:56.636Z,30.40
2022-08-10T13:54:29.149Z,30.40
2022-08-10T13:56:57.881Z,30.50
2022-08-10T14:00:32.975Z,30.50
2022-08-10T14:02:25.246Z,30.60
2022-08-10T14:04:55.674Z,30.60
2022-08-10T14:07:27.442Z,30.70
2022-08-10T14:10:07.166Z,30.70
2022-08-10T14:12:55.983Z,30.70
2022-08-10T14:15:32.373Z,30.70
2022-08-10T14:18:01.901Z,30.80
2022-08-10T14:20:34.252Z,30.80
2022-08-10T14:23:04.061Z,30.80
2022-08-10T14:25:33.424Z,30.90
2022-08-10T14:28:04.178Z,30.90
2022-08-10T14:30:33.124Z,31.00
2022-08-10T14:33:04.533Z,31.10
2022-08-10T14:36:19.444Z,31.00
2022-08-10T14:38:28.877Z,31.10
2022-08-10T14:40:59.020Z,31.10
2022-08-10T14:43:34.947Z,31.10
2022-08-10T14:46:07.583Z,31.20
2022-08-10T14:48:40.397Z,31.30
2022-08-10T14:51:11.114Z,31.30
2022-08-10T14:53:43.015Z,31.30
2022-08-10T14:56:13.480Z,31.40
2022-08-10T14:58:59.315Z,31.40
2022-08-10T15:02:39.093Z,31.40
2022-08-10T15:04:34.077Z,31.40
2022-08-10T15:07:12.341Z,31.50
2022-08-10T15:10:00.406Z,31.50
2022-08-10T15:12:33.252Z,31.50
2022-08-10T15:15:02.362Z,31.60
2022-08-10T15:17:37.395Z,31.60
2022-08-10T15:20:15.086Z,31.60
2022-08-10T15:22:58.752Z,31.70
2022-08-10T15:25:28.378Z,31.70
2022-08-10T15:28:05.285Z,31.80
2022-08-10T15:30:42.728Z,31.80
2022-08-10T15:34:03.272Z,31.80
2022-08-10T15:37:02.264Z,31.80
2022-08-10T15:40:28.020Z,31.80
2022-08-10T15:43:05.565Z,31.80
2022-08-10T15:45:56.960Z,31.80
2022-08-10T15:48:27.237Z,31.80
2022-08-10T15:51:06.570Z,31.90
2022-08-10T15:53:49.313Z,31.90
2022-08-10T15:56:28.731Z,32.00
2022-08-10T15:59:19.448Z,32.00
2022-08-10T16:02:13.463Z,32.00
2022-08-10T16:05:10.636Z,32.10
2022-08-10T16:08:00.373Z,32.10
2022-08-10T16:10:45.592Z,32.10
2022-08-10T16:13:59.321Z,32.20
2022-08-10T16:16:14.388Z,32.20
2022-08-10T16:18:45.745Z,32.20
2022-08-10T16:21:19.675Z,32.20
2022-08-10T16:24:15.718Z,32.20
2022-08-10T16:26:46.719Z,32.20
2022-08-10T16:29:21.149Z,32.30
2022-08-10T16:31:57.960Z,32.40
2022-08-10T16:34:28.250Z,32.40
2022-08-10T16:37:10.080Z,32.40
2022-08-10T16:39:58.943Z,32.40
2022-08-10T16:42:32.432Z,32.40
2022-08-10T16:45:07.639Z,32.40
2022-08-10T16:47:38.976Z,32.50
2022-08-10T16:50:09.607Z,32.50
2022-08-10T16:52:37.535Z,32.60
2022-08-10T16:55:24.483Z,32.70
2022-08-10T16:58:06.754Z,32.70
2022-08-10T17:00:35.388Z,32.80
2022-08-10T17:04:05.422Z,32.80
2022-08-10T17:06:01.477Z,32.80
2022-08-10T17:08:52.970Z,32.80
2022-08-10T17:11:23.872Z,32.80
2022-08-10T17:13:56.352Z,32.80
2022-08-10T17:16:25.989Z,32.80
2022-08-10T17:18:56.768Z,32.80
2022-08-10T17:21:30.232Z,32.90
2022-08-10T17:24:03.046Z,32.90
2022-08-10T17:26:35.667Z,32.90
2022-08-10T17:29:58.166Z,33.00
2022-08-10T17:32:54.002Z,33.10
2022-08-10T17:35:24.653Z,33.10
2022-08-10T17:37:56.900Z,33.20
2022-08-10T17:40:28.605Z,33.20
2022-08-10T17:42:57.069Z,33.20
2022-08-10T17:45:47.617Z,33.20
2022-08-10T17:48:18.889Z,33.20
2022-08-10T17:50:51.196Z,33.20
2022-08-10T17:53:22.561Z,33.20
2022-08-10T17:55:55.718Z,33.20
2022-08-10T17:58:27.194Z,33.20
2022-08-10T18:01:38.384Z,33.20
2022-08-10T18:03:57.697Z,33.20
2022-08-10T18:06:26.253Z,33.20
2022-08-10T18:08:58.093Z,33.10
2022-08-10T18:11:33.216Z,33.10
2022-08-10T18:14:09.536Z,33.10
2022-08-10T18:16:42.002Z,33.10
2022-08-10T18:19:14.763Z,33.10
2022-08-10T18:21:44.326Z,33.10
2022-08-10T18:24:18.611Z,33.00
2022-08-10T18:26:49.700Z,33.00
2022-08-10T18:29:25.208Z,32.90
2022-08-10T18:32:01.788Z,32.90
2022-08-10T18:34:31.778Z,32.80
2022-08-10T18:37:00.963Z,32.80
2022-08-10T18:39:32.182Z,32.70
2022-08-10T18:42:12.419Z,32.70
2022-08-10T18:44:55.034Z,32.60
2022-08-10T18:47:33.666Z,32.50
2022-08-10T18:50:14.296Z,32.50
2022-08-10T18:52:46.309Z,32.50
2022-08-10T18:55:25.095Z,32.40
2022-08-10T18:58:00.538Z,32.30
2022-08-10T19:00:44.316Z,32.20
2022-08-10T19:03:13.648Z,32.10
2022-08-10T19:06:16.297Z,32.00
2022-08-10T19:08:49.085Z,31.90
2022-08-10T19:11:45.700Z,31.80
2022-08-10T19:14:39.383Z,31.60
2022-08-10T19:17:26.923Z,31.50
2022-08-10T19:20:32.026Z,31.40
2022-08-10T19:23:23.882Z,31.30
2022-08-10T19:26:41.117Z,31.20
2022-08-10T19:30:08.172Z,31.20
2022-08-10T19:32:51.181Z,31.10
2022-08-10T19:36:03.673Z,31.00
2022-08-10T19:39:10.810Z,30.90
2022-08-10T19:41:45.904Z,30.80
2022-08-10T19:44:25.755Z,30.70
2022-08-10T19:47:30.711Z,30.70
2022-08-10T19:50:13.162Z,30.60
2022-08-10T19:52:58.412Z,30.40
2022-08-10T19:55:31.973Z,30.30
2022-08-10T19:58:23.776Z,30.30
2022-08-10T20:01:01.791Z,30.10
2022-08-10T20:03:50.343Z,30.10
2022-08-10T20:06:42.265Z,30.00
2022-08-10T20:09:22.580Z,29.90
2022-08-10T20:12:05.174Z,29.80
2022-08-10T20:14:57.999Z,29.80
2022-08-10T20:17:52.832Z,29.80
2022-08-10T20:20:41.570Z,29.70
2022-08-10T20:23:28.561Z,29.70
2022-08-10T20:26:01.053Z,29.60
2022-08-10T20:28:36.726Z,29.50
2022-08-10T20:31:32.964Z,29.50
2022-08-10T20:34:05.398Z,29.50
2022-08-10T20:36:39.817Z,29.40
2022-08-10T20:39:34.222Z,29.40
2022-08-10T20:42:27.341Z,29.40
2022-08-10T20:45:04.106Z,29.30
2022-08-10T20:47:54.200Z,29.30
2022-08-10T20:50:45.930Z,29.30
2022-08-10T20:53:22.435Z,29.20
2022-08-10T20:56:10.758Z,29.20
2022-08-10T20:58:58.175Z,29.10
2022-08-10T21:02:11.845Z,29.00
2022-08-10T21:04:30.452Z,29.00
2022-08-10T21:07:28.236Z,28.90
2022-08-10T21:10:28.199Z,28.80
2022-08-10T21:13:18.763Z,28.80
2022-08-10T21:15:55.485Z,28.70
2022-08-10T21:18:44.110Z,28.60
2022-08-10T21:21:59.004Z,28.50
2022-08-10T21:24:40.966Z,28.40
2022-08-10T21:27:33.530Z,28.40
2022-08-10T21:30:08.736Z,28.30
2022-08-10T21:32:41.351Z,28.20
2022-08-10T21:35:37.104Z,28.20
2022-08-10T21:38:31.221Z,28.10
2022-08-10T21:41:57.551Z,28.10
2022-08-10T21:45:08.021Z,28.00
2022-08-10T21:48:17.417Z,27.90
2022-08-10T21:51:24.733Z,27.80
2022-08-10T21:54:40.666Z,27.80
2022-08-10T21:57:43.745Z,27.70
2022-08-10T22:00:33.360Z,27.60
2022-08-10T22:03:21.714Z,27.50
2022-08-10T22:06:10.938Z,27.50
2022-08-10T22:12:24.975Z,27.40
2022-08-10T22:15:42.597Z,27.30
2022-08-10T22:22:03.003Z,27.30
2022-08-10T22:25:17.046Z,27.20
2022-08-10T22:28:12.417Z,27.20
2022-08-10T22:31:26.029Z,27.30
2022-08-10T22:31:29.012Z,27.50
2022-08-10T22:31:49.668Z,27.10
2022-08-10T22:35:00.544Z,27.10
2022-08-10T22:38:08.060Z,27.00
2022-08-10T22:40:54.299Z,27.00
2022-08-10T22:43:48.905Z,26.90
2022-08-10T22:46:38.960Z,26.90
2022-08-10T22:49:06.576Z,26.90
2022-08-10T22:51:42.665Z,26.90
2022-08-10T22:54:57.929Z,26.90
2022-08-10T22:57:44.296Z,26.90
2022-08-10T23:00:15.105Z,26.80
2022-08-10T23:02:51.958Z,26.80
2022-08-10T23:05:30.626Z,26.80
2022-08-10T23:08:29.943Z,26.80
2022-08-10T23:11:12.880Z,26.80
2022-08-10T23:13:47.474Z,26.80
2022-08-10T23:16:46.369Z,26.70
2022-08-10T23:19:22.709Z,26.80
2022-08-10T23:22:04.957Z,26.70
2022-08-10T23:24:47.668Z,26.70
2022-08-10T23:27:39.327Z,26.60
2022-08-10T23:30:17.749Z,26.60
2022-08-10T23:32:50.996Z,26.50
2022-08-10T23:36:31.810Z,26.50
2022-08-10T23:38:10.749Z,26.50
2022-08-10T23:40:43.373Z,26.40
2022-08-10T23:43:18.737Z,26.30
2022-08-10T23:45:53.137Z,26.30
2022-08-10T23:48:30.640Z,26.20
2022-08-10T23:51:01.358Z,26.10
2022-08-10T23:53:34.144Z,26.10
2022-08-10T23:56:09.003Z,26.10
2022-08-10T23:58:49.630Z,26.00
